• Join FlightAware (Why Join?)
  • Login
  • US Flag 
04:21PM EDT


 

Airport Tracker/Info


-or-


 

Live Flight TrackerFlight Track Log ✈ EZY5074 ✈ 23-May-2012 ✈ LFMN / NCE - EGKK / LGW

Flight Track Log - Related Links

Times and Time Zones

All times are in EDT time to prevent confusion due to time zone crossing. See the EZY5074 flight status page for this flight to view local times or setup timezone preferences in your user account.

Time Position Orientation Groundspeed Altitude Reporting Facility
EDT Latitude Longitude Course Direction KTS MPH feet Rate Location/Type
05:40PM 51.0798 -0.5757 14° North 228 262 3,000  Level FlightAware ADS-B
05:40PM 51.0839 -0.5740 34° Northeast 228 262 3,000 -300 Level FlightAware ADS-B
05:40PM 51.0996 -0.5573 55° Northeast 230 265 2,900 -300 Descending FlightAware ADS-B
05:40PM 51.1028 -0.5501 69° East 232 267 2,900 -540 Level FlightAware ADS-B
05:40PM 51.1055 -0.5389 84° East 234 269 2,800 -420 Descending FlightAware ADS-B
05:41PM 51.1081 -0.5000 78° East 222 255 2,700 -300 Descending FlightAware ADS-B
05:48PM 51.4631 2.5476 261° West  Level Estimated
05:49PM 51.4206 2.1404 260° West  Level Estimated
05:50PM 51.3766 1.7340 260° West  Level Estimated
05:51PM 51.3312 1.3283 260° West  Level Estimated
05:52PM 51.2845 0.9235 259° West  Level Estimated
05:53PM 51.2363 0.5196 259° West  Level Estimated
05:54PM 51.1867 0.1164 259° West  Level Estimated
05:55PM 51.1358 -0.2858 78° East  Level Estimated
05:56PM 51.1867 0.1164 259° West  Level Estimated
05:57PM 51.1358 -0.2858 78° East  Level Estimated
05:58PM 51.1867 0.1164 259° West  Level Estimated
05:59PM 51.1358 -0.2858 78° East  Level Estimated
06:00PM 51.1867 0.1164 259° West  Level Estimated
06:01PM 51.1358 -0.2858 78° East  Level Estimated
06:02PM 51.1867 0.1164 259° West  Level Estimated
06:03PM 51.1358 -0.2858 78° East  Level Estimated
06:04PM 51.1867 0.1164 259° West  Level Estimated
06:05PM 51.1358 -0.2858 78° East  Level Estimated
06:06PM 51.1867 0.1164 259° West  Level Estimated
06:07PM 51.1358 -0.2858 78° East  Level Estimated
06:08PM 51.1867 0.1164 259° West  Level Estimated
06:09PM 51.1358 -0.2858 78° East  Level Estimated
06:10PM 51.1867 0.1164 259° West  Level Estimated
06:11PM 51.1358 -0.2858 78° East  Level Estimated
06:12PM 51.1867 0.1164 259° West  Level Estimated
06:13PM 51.1358 -0.2858 78° East  Level Estimated
06:14PM 51.1867 0.1164 259° West  Level Estimated
06:15PM 51.1358 -0.2858 78° East  Level Estimated
06:16PM 51.1867 0.1164 259° West  Level Estimated
06:17PM 51.1358 -0.2858 78° East  Level Estimated
06:18PM 51.1867 0.1164 259° West  Level Estimated
06:19PM 51.1358 -0.2858 78° East  Level Estimated
06:20PM 51.1867 0.1164 259° West  Level Estimated
06:21PM 51.1358 -0.2858 78° East  Level Estimated
06:22PM 51.1867 0.1164 259° West  Level Estimated
06:23PM 51.1358 -0.2858 78° East  Level Estimated
06:24PM 51.1867 0.1164 259° West  Level Estimated
06:25PM 51.1358 -0.2858 78° East  Level Estimated
06:26PM 51.1867 0.1164 259° West  Level Estimated
06:27PM 51.1358 -0.2858 78° East  Level Estimated
06:28PM 51.1867 0.1164 259° West  Level Estimated
06:29PM 51.1358 -0.2858 78° East  Level Estimated
06:30PM 51.1867 0.1164 259° West  Level Estimated
06:31PM 51.1358 -0.2858 78° East  Level Estimated
06:32PM 51.1867 0.1164 259° West  Level Estimated
06:33PM 51.1358 -0.2858 78° East  Level Estimated
06:34PM 51.1867 0.1164 259° West  Level Estimated
06:35PM 51.1358 -0.2858 78° East  Level Estimated
06:36PM 51.1867 0.1164 259° West  Level Estimated
06:37PM 51.1358 -0.2858 78° East  Level Estimated
06:38PM 51.1867 0.1164 259° West  Level Estimated
06:39PM 51.1358 -0.2858 78° East  Level Estimated
06:40PM 51.1867 0.1164 78° East  Level Estimated